Copeland, Florida
Current Conditions -  °F | °C
As of 2:53 PM on Tuesday 21 Oct 2014 (Local Time) from KAPF Reporting Station
Broken Clouds Broken Clouds  
Wind Chill: 77°   Ceiling: 5500
Heat Index: 79°   Visibility: 10mi
Dew Point: 70°   Wind: 14mph
Humidity: 79%   Direction: 170°S
Pressure: 29.93"   Gusts: NA
Location:  25.95°N, 81.36°W
Report Text: KAPF 211853Z 17012KT 10SM FEW017 SCT045 BKN055 25/21 A2993 RMK AO2 SLP133 T02500211
Loading
Personal Weather Stations






























Interactive Weather Map
Tropical Storm Tracking
New forecast layout! Learn more

10-Day Weather Forecast

Advertisements
Track Severe Weather on mobile